Main page
METAR-TAF:

METAR-TAF

Airports :

Ainsworth Regional Airport

Ainsworth, Nebraska, United States

latitude: 42-35N, longitude: 100-00W, elevation: 2588 ft

Current weather observation

The report was made 6 minutes ago, at 09:35 UTC
Wind 7 mph from the West
Temperature 32°F
Humidity 74%
Pressure 29.94 in. Hg
Visibility: 10 miles
Clear sky

METAR: KANW 230935Z AUTO 27006KT 10SM CLR 00/M04 A2994 RMK AO2 T00001045

Time: 03:41 (09:41 UTC)


TAF: missing

Weather observations and forecasts of more than 4000 airports (METAR and TAF reports).

The available stations are represented by yellow and red dots on the map.

Hover mouse over dot to see the name of the station.

Then click to see weather observations and forecasts.

To change the map : click on the green buttons with a black cross to zoom in, on the green button with a dash to zoom out, or on the green arrows for adjacent maps.


METAR-TAF: